createdAt,value
2022-11-24T00:00:19.862Z,99734.53
2022-11-24T00:02:49.385Z,99743.69
2022-11-24T00:05:17.772Z,99737.84
2022-11-24T00:07:45.989Z,99742.50
2022-11-24T00:10:14.273Z,99743.44
2022-11-24T00:12:42.745Z,99753.34
2022-11-24T00:15:13.447Z,99741.56
2022-11-24T00:17:44.429Z,99752.84
2022-11-24T00:20:14.740Z,99756.19
2022-11-24T00:22:43.342Z,99751.06
2022-11-24T00:25:12.521Z,99748.81
2022-11-24T00:27:40.495Z,99747.34
2022-11-24T00:30:11.471Z,99748.06
2022-11-24T00:32:43.999Z,99750.56
2022-11-24T00:35:12.207Z,99752.13
2022-11-24T00:37:40.178Z,99756.66
2022-11-24T00:40:10.280Z,99757.16
2022-11-24T00:42:38.309Z,99756.69
2022-11-24T00:45:13.878Z,99745.13
2022-11-24T00:47:50.350Z,99753.81
2022-11-24T00:50:22.420Z,99740.69
2022-11-24T00:52:53.301Z,99763.13
2022-11-24T00:55:22.414Z,99767.88
2022-11-24T00:57:50.594Z,99767.63
2022-11-24T01:00:21.801Z,99768.34
2022-11-24T01:02:51.875Z,99763.22
2022-11-24T01:05:23.384Z,99776.69
2022-11-24T01:07:51.467Z,99776.22
2022-11-24T01:10:19.792Z,99785.84
2022-11-24T01:12:51.259Z,99786.00
2022-11-24T01:15:26.277Z,99788.47
2022-11-24T01:17:57.747Z,99794.66
2022-11-24T01:20:25.705Z,99802.63
2022-11-24T01:22:54.309Z,99808.84
2022-11-24T01:25:25.191Z,99799.41
2022-11-24T01:27:53.164Z,99805.97
2022-11-24T01:30:23.373Z,99811.47
2022-11-24T01:32:53.056Z,99820.38
2022-11-24T01:35:22.743Z,99812.88
2022-11-24T01:37:54.307Z,99809.53
2022-11-24T01:40:22.683Z,99814.06
2022-11-24T01:42:53.063Z,99823.72
2022-11-24T01:45:33.251Z,99826.66
2022-11-24T01:48:06.141Z,99828.56
2022-11-24T01:50:37.893Z,99829.25
2022-11-24T01:53:06.947Z,99841.16
2022-11-24T01:55:41.301Z,99840.25
2022-11-24T01:58:14.091Z,99842.97
2022-11-24T02:00:45.264Z,99840.34
2022-11-24T02:03:19.458Z,99846.09
2022-11-24T02:05:57.840Z,99856.56
2022-11-24T02:08:34.149Z,99847.84
2022-11-24T02:11:07.906Z,99846.91
2022-11-24T02:13:39.747Z,99848.22
2022-11-24T02:16:12.533Z,99852.28
2022-11-24T02:18:43.437Z,99857.78
2022-11-24T02:21:16.164Z,99857.56
2022-11-24T02:23:53.392Z,99844.13
2022-11-24T02:26:31.276Z,99848.16
2022-11-24T02:29:19.740Z,99853.88
2022-11-24T02:31:51.923Z,99855.09
2022-11-24T02:34:20.367Z,99854.97
2022-11-24T02:36:48.865Z,99859.16
2022-11-24T02:39:18.739Z,99848.16
2022-11-24T02:41:53.739Z,99847.00
2022-11-24T02:44:25.741Z,99848.41
2022-11-24T02:47:26.989Z,99850.81
2022-11-24T02:50:02.268Z,99846.88
2022-11-24T02:52:35.552Z,99840.56
2022-11-24T02:55:09.599Z,99846.16
2022-11-24T02:57:44.987Z,99850.31
2022-11-24T03:00:16.934Z,99840.44
2022-11-24T03:02:47.117Z,99839.59
2022-11-24T03:05:15.464Z,99839.34
2022-11-24T03:07:43.958Z,99840.28
2022-11-24T03:10:14.597Z,99831.97
2022-11-24T03:12:49.737Z,99842.47
2022-11-24T03:15:19.134Z,99841.03
2022-11-24T03:17:48.966Z,99841.03
2022-11-24T03:20:20.274Z,99853.66
2022-11-24T03:22:50.465Z,99850.53
2022-11-24T03:25:23.071Z,99858.16
2022-11-24T03:27:54.304Z,99860.78
2022-11-24T03:30:23.398Z,99854.94
2022-11-24T03:32:54.676Z,99858.66
2022-11-24T03:35:27.154Z,99859.59
2022-11-24T03:37:55.762Z,99866.28
2022-11-24T03:40:27.594Z,99857.19
2022-11-24T03:42:57.116Z,99862.72
2022-11-24T03:48:15.593Z,99866.63
2022-11-24T03:50:45.386Z,99867.00
2022-11-24T03:53:16.537Z,99869.28
2022-11-24T03:55:45.396Z,99867.03
2022-11-24T03:58:15.004Z,99866.34
2022-11-24T04:00:45.231Z,99865.56
2022-11-24T04:03:13.860Z,99870.13
2022-11-24T04:05:41.845Z,99864.97
2022-11-24T04:08:10.607Z,99865.94
2022-11-24T04:10:40.561Z,99867.38
2022-11-24T04:13:15.611Z,99880.50
2022-11-24T04:15:45.359Z,99880.75
2022-11-24T04:18:15.396Z,99890.28
2022-11-24T04:20:44.723Z,99896.34
2022-11-24T04:23:15.646Z,99892.06
2022-11-24T04:25:43.779Z,99891.22
2022-11-24T04:28:15.371Z,99893.97
2022-11-24T04:30:46.148Z,99898.03
2022-11-24T04:33:15.998Z,99900.03
2022-11-24T04:35:44.144Z,99913.31
2022-11-24T04:38:12.128Z,99918.56
2022-11-24T04:40:41.490Z,99911.53
2022-11-24T04:43:14.322Z,99905.34
2022-11-24T04:45:43.687Z,99916.91
2022-11-24T04:48:14.161Z,99915.56
2022-11-24T04:50:43.654Z,99927.38
2022-11-24T04:53:14.494Z,99923.22
2022-11-24T04:55:45.119Z,99922.28
2022-11-24T04:58:17.271Z,99923.94
2022-11-24T05:00:46.898Z,99930.47
2022-11-24T05:03:15.065Z,99924.75
2022-11-24T05:05:46.500Z,99932.41
2022-11-24T05:08:15.860Z,99948.97
2022-11-24T05:10:44.074Z,99949.81
2022-11-24T05:13:14.876Z,99951.00
2022-11-24T05:15:43.873Z,99944.44
2022-11-24T05:18:16.294Z,99942.75
2022-11-24T05:20:46.695Z,99941.00
2022-11-24T05:23:15.704Z,99945.03
2022-11-24T05:25:47.842Z,99948.72
2022-11-24T05:28:18.531Z,99944.75
2022-11-24T05:30:47.047Z,99952.53
2022-11-24T05:33:20.177Z,99945.25
2022-11-24T05:35:49.043Z,99946.06
2022-11-24T05:38:18.363Z,99946.63
2022-11-24T05:40:48.435Z,99960.38
2022-11-24T05:43:18.605Z,99964.31
2022-11-24T05:45:46.632Z,99964.44
2022-11-24T05:48:16.554Z,99968.38
2022-11-24T05:50:55.566Z,99972.78
2022-11-24T05:53:23.870Z,99972.91
2022-11-24T05:55:52.218Z,99973.88
2022-11-24T05:58:21.646Z,99974.69
2022-11-24T06:00:51.229Z,99979.81
2022-11-24T06:03:19.351Z,99980.03
2022-11-24T06:05:51.756Z,99986.84
2022-11-24T06:08:22.369Z,99983.84
2022-11-24T06:10:52.575Z,99987.91
2022-11-24T06:13:21.209Z,99987.16
2022-11-24T06:15:49.692Z,99996.78
2022-11-24T06:18:21.816Z,99995.94
2022-11-24T06:21:09.728Z,99995.13
2022-11-24T06:23:40.054Z,99994.28
2022-11-24T06:26:09.183Z,99990.84
2022-11-24T06:28:42.622Z,100003.97
2022-11-24T06:31:14.460Z,100005.06
2022-11-24T06:33:42.756Z,100006.84
2022-11-24T06:36:15.309Z,100008.28
2022-11-24T06:38:43.683Z,100006.63
2022-11-24T06:41:14.792Z,100006.94
2022-11-24T06:43:45.767Z,100014.81
2022-11-24T06:46:16.794Z,100006.22
2022-11-24T06:48:45.954Z,100012.44
2022-11-24T06:51:15.351Z,100013.53
2022-11-24T06:53:43.706Z,100022.13
2022-11-24T06:56:16.991Z,100015.09
2022-11-24T06:58:47.253Z,100016.97
2022-11-24T07:01:16.820Z,100014.94
2022-11-24T07:03:44.917Z,100019.25
2022-11-24T07:06:15.920Z,100016.50
2022-11-24T07:08:50.168Z,100019.25
2022-11-24T07:11:20.608Z,100026.03
2022-11-24T07:13:55.113Z,100024.16
2022-11-24T07:16:26.734Z,100028.91
2022-11-24T07:19:03.013Z,100028.91
2022-11-24T07:21:32.706Z,100032.81
2022-11-24T07:24:02.293Z,100030.91
2022-11-24T07:26:37.544Z,100038.09
2022-11-24T07:29:07.750Z,100041.31
2022-11-24T07:31:42.975Z,100043.22
2022-11-24T07:34:16.241Z,100051.22
2022-11-24T07:36:46.674Z,100047.91
2022-11-24T07:39:18.612Z,100060.19
2022-11-24T07:41:48.127Z,100055.53
2022-11-24T07:44:16.240Z,100064.00
2022-11-24T07:46:44.382Z,100064.72
2022-11-24T07:49:12.358Z,100069.00
2022-11-24T07:51:41.016Z,100071.50
2022-11-24T07:54:11.738Z,100069.47
2022-11-24T07:56:44.161Z,100071.13
2022-11-24T07:59:14.870Z,100070.81
2022-11-24T08:01:45.054Z,100077.63
2022-11-24T08:04:17.743Z,100077.16
2022-11-24T08:06:47.696Z,100080.84
2022-11-24T08:09:16.798Z,100083.97
2022-11-24T08:11:50.259Z,100078.72
2022-11-24T08:14:20.276Z,100085.41
2022-11-24T08:16:49.547Z,100092.66
2022-11-24T08:19:17.575Z,100085.97
2022-11-24T08:21:48.213Z,100098.88
2022-11-24T08:24:18.245Z,100097.63
2022-11-24T08:26:46.944Z,100098.53
2022-11-24T08:29:18.564Z,100102.25
2022-11-24T08:31:46.703Z,100103.09
2022-11-24T08:34:16.502Z,100102.50
2022-11-24T08:36:46.126Z,100105.41
2022-11-24T08:39:17.114Z,100111.38
2022-11-24T08:41:45.836Z,100106.81
2022-11-24T08:44:23.020Z,100109.34
2022-11-24T08:46:53.363Z,100110.91
2022-11-24T08:49:23.169Z,100113.63
2022-11-24T08:51:52.967Z,100118.19
2022-11-24T08:54:21.711Z,100118.19
2022-11-24T08:56:50.937Z,100122.94
2022-11-24T08:59:19.509Z,100125.69
2022-11-24T09:01:51.433Z,100133.59
2022-11-24T09:04:19.888Z,100126.50
2022-11-24T09:06:48.895Z,100134.88
2022-11-24T09:09:17.732Z,100140.13
2022-11-24T09:11:48.668Z,100139.63
2022-11-24T09:14:19.619Z,100146.19
2022-11-24T09:16:49.704Z,100142.00
2022-11-24T09:19:20.317Z,100148.81
2022-11-24T09:21:49.231Z,100155.38
2022-11-24T09:24:19.373Z,100135.00
2022-11-24T09:26:50.110Z,100140.16
2022-11-24T09:29:18.243Z,100141.44
2022-11-24T09:31:49.427Z,100144.72
2022-11-24T09:34:22.298Z,100149.78
2022-11-24T09:36:51.565Z,100159.88
2022-11-24T09:39:20.547Z,100158.13
2022-11-24T09:42:09.352Z,100163.13
2022-11-24T09:45:01.338Z,100164.50
2022-11-24T09:47:42.061Z,100168.97
2022-11-24T09:50:17.537Z,100166.03
2022-11-24T09:52:51.554Z,100175.56
2022-11-24T09:55:31.672Z,100173.69
2022-11-24T09:58:17.976Z,100176.03
2022-11-24T10:00:53.967Z,100168.31
2022-11-24T10:03:31.110Z,100183.47
2022-11-24T10:06:05.267Z,100180.31
2022-11-24T10:08:48.040Z,100193.22
2022-11-24T10:11:24.314Z,100186.19
2022-11-24T10:14:20.071Z,100187.00
2022-11-24T10:16:54.489Z,100203.03
2022-11-24T10:19:37.371Z,100192.25
2022-11-24T10:22:28.085Z,100192.25
2022-11-24T10:25:14.015Z,100194.72
2022-11-24T10:27:46.116Z,100188.63
2022-11-24T10:30:18.529Z,100200.41
2022-11-24T10:32:50.145Z,100203.03
2022-11-24T10:35:24.684Z,100193.06
2022-11-24T10:38:15.946Z,100201.19
2022-11-24T10:40:58.257Z,100192.13
2022-11-24T10:43:29.573Z,100194.22
2022-11-24T10:46:07.522Z,100206.19
2022-11-24T10:48:44.715Z,100209.16
2022-11-24T10:51:47.939Z,100206.25
2022-11-24T10:54:29.760Z,100209.28
2022-11-24T10:57:00.881Z,100210.00
2022-11-24T10:59:37.955Z,100215.91
2022-11-24T11:02:37.431Z,100214.06
2022-11-24T11:05:38.245Z,100216.19
2022-11-24T11:08:35.435Z,100217.84
2022-11-24T11:11:22.022Z,100217.34
2022-11-24T11:14:01.597Z,100220.03
2022-11-24T11:16:39.771Z,100226.13
2022-11-24T11:19:48.361Z,100221.69
2022-11-24T11:22:26.403Z,100218.22
2022-11-24T11:25:08.622Z,100222.09
2022-11-24T11:27:39.036Z,100224.94
2022-11-24T11:36:16.661Z,100232.16
2022-11-24T11:38:48.188Z,100230.06
2022-11-24T11:41:22.490Z,100223.13
2022-11-24T11:44:02.818Z,100229.78
2022-11-24T11:46:33.941Z,100227.28
2022-11-24T11:49:04.738Z,100236.44
2022-11-24T11:51:57.391Z,100233.16
2022-11-24T11:54:41.591Z,100241.53
2022-11-24T11:57:19.290Z,100232.91
2022-11-24T12:00:20.287Z,100235.56
2022-11-24T12:03:21.261Z,100239.84
2022-11-24T12:06:04.611Z,100241.78
2022-11-24T12:09:11.475Z,100247.06
2022-11-24T12:11:41.770Z,100257.63
2022-11-24T12:14:24.251Z,100257.41
2022-11-24T12:17:02.504Z,100258.50
2022-11-24T12:19:53.143Z,100258.22
2022-11-24T12:22:29.030Z,100249.03
2022-11-24T12:25:03.661Z,100255.00
2022-11-24T12:27:55.363Z,100247.63
2022-11-24T12:30:25.063Z,100256.38
2022-11-24T12:33:24.345Z,100260.00
2022-11-24T12:36:05.400Z,100262.78
2022-11-24T12:38:47.140Z,100258.91
2022-11-24T12:41:41.641Z,100268.34
2022-11-24T12:44:29.147Z,100273.78
2022-11-24T12:47:12.118Z,100267.41
2022-11-24T12:50:00.522Z,100271.31
2022-11-24T12:52:34.864Z,100268.53
2022-11-24T12:55:05.269Z,100261.28
2022-11-24T12:57:42.908Z,100264.38
2022-11-24T13:00:22.579Z,100285.22
2022-11-24T13:03:12.536Z,100269.06
2022-11-24T13:05:57.753Z,100274.44
2022-11-24T13:08:29.303Z,100263.88
2022-11-24T13:11:36.359Z,100271.59
2022-11-24T13:14:08.496Z,100271.00
2022-11-24T13:17:21.536Z,100277.03
2022-11-24T13:19:45.066Z,100274.47
2022-11-24T13:22:25.208Z,100288.41
2022-11-24T13:25:18.045Z,100290.78
2022-11-24T13:27:50.658Z,100291.75
2022-11-24T13:30:58.395Z,100290.50
2022-11-24T13:33:45.160Z,100299.13
2022-11-24T13:36:35.836Z,100297.19
2022-11-24T13:39:22.570Z,100285.50
2022-11-24T13:42:05.514Z,100293.28
2022-11-24T13:44:47.435Z,100295.09
2022-11-24T13:47:45.218Z,100296.22
2022-11-24T13:50:25.010Z,100303.31
2022-11-24T13:53:01.882Z,100316.81
2022-11-24T13:55:38.813Z,100300.97
2022-11-24T13:58:28.466Z,100312.63
2022-11-24T14:01:18.188Z,100307.63
2022-11-24T14:04:30.637Z,100311.97
2022-11-24T14:07:08.208Z,100316.81
2022-11-24T14:09:42.159Z,100310.47
2022-11-24T14:12:21.229Z,100317.94
2022-11-24T14:14:51.168Z,100312.06
2022-11-24T14:17:27.140Z,100304.97
2022-11-24T14:19:57.049Z,100307.63
2022-11-24T14:22:37.169Z,100307.88
2022-11-24T14:25:06.345Z,100300.38
2022-11-24T14:27:40.059Z,100299.72
2022-11-24T14:30:21.347Z,100300.13
2022-11-24T14:32:55.837Z,100294.94
2022-11-24T14:35:27.403Z,100301.22
2022-11-24T14:37:58.815Z,100303.38
2022-11-24T14:40:43.884Z,100311.00
2022-11-24T14:43:27.270Z,100303.78
2022-11-24T14:45:58.953Z,100309.78
2022-11-24T14:48:31.857Z,100318.47
2022-11-24T14:51:15.757Z,100324.31
2022-11-24T14:53:50.987Z,100325.31
2022-11-24T14:56:29.613Z,100319.34
2022-11-24T14:59:02.975Z,100323.06
2022-11-24T15:01:37.425Z,100321.09
2022-11-24T15:04:38.825Z,100321.09
2022-11-24T15:07:17.610Z,100323.44
2022-11-24T15:09:54.142Z,100323.38
2022-11-24T15:12:30.138Z,100326.09
2022-11-24T15:15:05.265Z,100319.06
2022-11-24T15:17:34.034Z,100335.59
2022-11-24T15:20:10.610Z,100333.66
2022-11-24T15:22:44.447Z,100335.38
2022-11-24T15:25:31.247Z,100343.63
2022-11-24T15:28:02.418Z,100343.31
2022-11-24T15:30:36.827Z,100343.34
2022-11-24T15:33:14.527Z,100350.59
2022-11-24T15:35:44.818Z,100358.06
2022-11-24T15:38:14.857Z,100355.81
2022-11-24T15:40:45.766Z,100353.78
2022-11-24T15:43:20.390Z,100367.72
2022-11-24T15:45:50.873Z,100364.25
2022-11-24T15:48:19.002Z,100370.97
2022-11-24T15:50:47.867Z,100378.28
2022-11-24T15:53:20.828Z,100375.53
2022-11-24T15:55:51.962Z,100389.09
2022-11-24T15:58:21.491Z,100390.91
2022-11-24T16:00:53.502Z,100396.44
2022-11-24T16:03:46.445Z,100400.72
2022-11-24T16:06:23.367Z,100405.28
2022-11-24T16:08:54.133Z,100407.41
2022-11-24T16:11:22.684Z,100399.13
2022-11-24T16:13:53.272Z,100410.28
2022-11-24T16:16:24.866Z,100407.84
2022-11-24T16:18:54.347Z,100418.53
2022-11-24T16:21:24.818Z,100423.28
2022-11-24T16:23:52.841Z,100416.94
2022-11-24T16:26:20.998Z,100410.97
2022-11-24T16:28:49.652Z,100412.03
2022-11-24T16:31:18.970Z,100422.66
2022-11-24T16:33:49.098Z,100419.56
2022-11-24T16:36:18.950Z,100418.00
2022-11-24T16:38:47.707Z,100414.03
2022-11-24T16:41:17.177Z,100414.25
2022-11-24T16:43:45.037Z,100418.28
2022-11-24T16:46:21.202Z,100425.69
2022-11-24T16:48:53.669Z,100418.38
2022-11-24T16:51:23.247Z,100425.56
2022-11-24T16:53:59.157Z,100428.28
2022-11-24T16:56:27.724Z,100432.94
2022-11-24T16:58:56.266Z,100435.63
2022-11-24T17:01:31.409Z,100433.22
2022-11-24T17:04:01.664Z,100428.91
2022-11-24T17:06:30.374Z,100428.66
2022-11-24T17:09:01.249Z,100426.34
2022-11-24T17:11:35.798Z,100432.22
2022-11-24T17:14:06.215Z,100436.25
2022-11-24T17:16:34.441Z,100432.06
2022-11-24T17:19:05.451Z,100433.97
2022-11-24T17:21:33.888Z,100439.94
2022-11-24T17:24:05.247Z,100449.09
2022-11-24T17:26:35.199Z,100449.31
2022-11-24T17:29:03.315Z,100444.38
2022-11-24T17:31:32.859Z,100440.19
2022-11-24T17:34:01.527Z,100441.72
2022-11-24T17:36:34.400Z,100449.69
2022-11-24T17:39:08.108Z,100450.13
2022-11-24T17:41:36.944Z,100453.69
2022-11-24T17:44:06.597Z,100458.00
2022-11-24T17:46:37.108Z,100454.66
2022-11-24T17:49:06.627Z,100452.03
2022-11-24T17:51:37.039Z,100453.91
2022-11-24T17:54:31.123Z,100454.84
2022-11-24T17:56:53.945Z,100459.47
2022-11-24T17:59:34.675Z,100456.13
2022-11-24T18:02:03.662Z,100465.28
2022-11-24T18:04:31.910Z,100465.50
2022-11-24T18:07:03.806Z,100466.56
2022-11-24T18:09:31.990Z,100476.63
2022-11-24T18:12:00.506Z,100477.97
2022-11-24T18:14:33.437Z,100481.00
2022-11-24T18:17:01.701Z,100479.56
2022-11-24T18:19:32.827Z,100474.50
2022-11-24T18:22:06.467Z,100474.28
2022-11-24T18:24:34.553Z,100479.84
2022-11-24T18:27:07.524Z,100480.19
2022-11-24T18:29:38.490Z,100489.63
2022-11-24T18:32:07.545Z,100495.81
2022-11-24T18:34:39.621Z,100488.22
2022-11-24T18:37:13.448Z,100491.81
2022-11-24T18:39:43.734Z,100487.50
2022-11-24T18:42:11.896Z,100487.63
2022-11-24T18:44:45.434Z,100486.78
2022-11-24T18:47:17.128Z,100488.84
2022-11-24T18:49:48.380Z,100487.19
2022-11-24T18:52:18.896Z,100493.28
2022-11-24T18:54:48.425Z,100488.97
2022-11-24T18:57:16.670Z,100481.53
2022-11-24T18:59:47.638Z,100485.19
2022-11-24T19:02:18.686Z,100484.44
2022-11-24T19:04:46.780Z,100490.81
2022-11-24T19:07:17.270Z,100489.47
2022-11-24T19:09:48.068Z,100487.97
2022-11-24T19:12:16.316Z,100477.69
2022-11-24T19:14:44.490Z,100482.94
2022-11-24T19:17:14.884Z,100485.44
2022-11-24T19:19:43.342Z,100480.31
2022-11-24T19:22:13.253Z,100484.63
2022-11-24T19:24:41.548Z,100478.72
2022-11-24T19:27:12.785Z,100475.47
2022-11-24T19:29:50.648Z,100467.59
2022-11-24T19:32:20.992Z,100469.38
2022-11-24T19:34:50.135Z,100472.84
2022-11-24T19:37:18.569Z,100472.00
2022-11-24T19:39:52.730Z,100470.53
2022-11-24T19:42:22.467Z,100476.59
2022-11-24T19:44:56.722Z,100476.09
2022-11-24T19:47:28.501Z,100473.66
2022-11-24T19:49:56.826Z,100473.72
2022-11-24T19:52:25.247Z,100473.84
2022-11-24T19:54:53.511Z,100474.81
2022-11-24T19:57:25.037Z,100475.84
2022-11-24T19:59:53.201Z,100490.69
2022-11-24T20:02:24.432Z,100486.63
2022-11-24T20:04:52.926Z,100485.75
2022-11-24T20:07:21.828Z,100479.97
2022-11-24T20:09:52.809Z,100491.38
2022-11-24T20:12:21.285Z,100493.91
2022-11-24T20:14:55.409Z,100487.94
2022-11-24T20:17:23.781Z,100485.50
2022-11-24T20:19:52.496Z,100489.91
2022-11-24T20:22:21.955Z,100489.06
2022-11-24T20:24:50.645Z,100491.97
2022-11-24T20:27:18.537Z,100492.06
2022-11-24T20:29:47.092Z,100486.84
2022-11-24T20:32:19.629Z,100483.41
2022-11-24T20:34:50.480Z,100484.50
2022-11-24T20:37:23.524Z,100485.66
2022-11-24T20:39:52.737Z,100485.00
2022-11-24T20:42:23.578Z,100490.50
2022-11-24T20:44:51.662Z,100479.31
2022-11-24T20:47:23.551Z,100482.44
2022-11-24T20:49:53.031Z,100486.06
2022-11-24T20:52:22.110Z,100488.78
2022-11-24T20:54:51.008Z,100493.38
2022-11-24T20:57:21.375Z,100483.84
2022-11-24T20:59:50.548Z,100482.25
2022-11-24T21:02:19.660Z,100481.13
2022-11-24T21:04:52.264Z,100487.19
2022-11-24T21:07:20.507Z,100482.81
2022-11-24T21:09:49.164Z,100484.84
2022-11-24T21:12:23.287Z,100481.22
2022-11-24T21:14:52.157Z,100474.19
2022-11-24T21:17:22.491Z,100472.41
2022-11-24T21:19:55.741Z,100466.25
2022-11-24T21:22:26.222Z,100474.19
2022-11-24T21:24:57.112Z,100485.59
2022-11-24T21:27:27.327Z,100488.34
2022-11-24T21:29:57.915Z,100486.19
2022-11-24T21:32:27.529Z,100487.50
2022-11-24T21:34:59.388Z,100489.28
2022-11-24T21:37:30.434Z,100495.63
2022-11-24T21:40:00.677Z,100501.81
2022-11-24T21:42:29.506Z,100506.28
2022-11-24T21:45:00.662Z,100494.13
2022-11-24T21:47:30.300Z,100490.97
2022-11-24T21:50:02.088Z,100501.22
2022-11-24T21:52:30.667Z,100505.53
2022-11-24T21:55:01.448Z,100502.25
2022-11-24T21:57:32.491Z,100508.50
2022-11-24T22:00:02.339Z,100508.06
2022-11-24T22:02:34.585Z,100500.50
2022-11-24T22:05:05.536Z,100500.66
2022-11-24T22:07:36.057Z,100504.41
2022-11-24T22:10:09.885Z,100499.34
2022-11-24T22:12:43.618Z,100497.84
2022-11-24T22:15:13.929Z,100501.50
2022-11-24T22:17:42.177Z,100496.34
2022-11-24T22:20:12.457Z,100498.50
2022-11-24T22:22:43.769Z,100501.19
2022-11-24T22:25:13.795Z,100505.81
2022-11-24T22:27:42.843Z,100501.72
2022-11-24T22:30:12.739Z,100501.72
2022-11-24T22:32:43.928Z,100514.78
2022-11-24T22:35:16.320Z,100500.31
2022-11-24T22:37:44.396Z,100505.63
2022-11-24T22:40:12.815Z,100509.09
2022-11-24T22:42:41.079Z,100506.72
2022-11-24T22:45:11.638Z,100500.75
2022-11-24T22:47:44.692Z,100505.16
2022-11-24T22:50:18.589Z,100499.94
2022-11-24T22:52:46.716Z,100501.97
2022-11-24T22:55:17.708Z,100498.69
2022-11-24T22:57:48.522Z,100498.69
2022-11-24T23:00:19.838Z,100502.31
2022-11-24T23:02:58.782Z,100496.22
2022-11-24T23:05:29.596Z,100495.56
2022-11-24T23:07:59.984Z,100493.81
2022-11-24T23:10:29.759Z,100503.78
2022-11-24T23:12:58.822Z,100497.91
2022-11-24T23:15:28.777Z,100500.66
2022-11-24T23:17:58.149Z,100499.72
2022-11-24T23:20:27.756Z,100508.94
2022-11-24T23:22:57.817Z,100514.25
2022-11-24T23:25:28.800Z,100506.69
2022-11-24T23:27:58.641Z,100500.88
2022-11-24T23:30:27.214Z,100494.03
2022-11-24T23:32:58.267Z,100486.41
2022-11-24T23:35:29.989Z,100488.16
2022-11-24T23:38:07.467Z,100493.56
2022-11-24T23:40:36.208Z,100496.25
2022-11-24T23:43:05.726Z,100494.75
2022-11-24T23:45:34.170Z,100496.09
2022-11-24T23:48:03.503Z,100478.44
2022-11-24T23:50:32.236Z,100494.09
2022-11-24T23:53:04.184Z,100496.97
2022-11-24T23:55:32.963Z,100497.09
2022-11-24T23:58:01.667Z,100492.91
